Flight Track Log - Related Links

Times and Time Zones

All times are in EDT time to prevent confusion due to time zone crossing. See the N510SR flight status page for this flight to view local times or setup timezone preferences in your user account.

Time Position Orientation Groundspeed Altitude Reporting Facility
EDT Latitude Longitude Course Direction KTS MPH feet Rate Location/Type
Mon 06:08:40 PM 40.5500 -75.1833 84° East 283 326 5,000  Level New York TRACON
Mon 06:09:00 PM 40.5541 -75.3911 93° East  Level FlightAware Approximate
Mon 06:09:39 PM 40.5667 -75.0833 78° East 281 323 5,000  Level New York TRACON
Mon 06:10:00 PM 40.5496 -75.2970 101° East  Level FlightAware Approximate
Mon 06:10:40 PM 40.5667 -74.9833 90° East 285 328 4,800  Level New York TRACON
Mon 06:11:00 PM 40.5363 -75.2042 101° East  Level FlightAware Approximate
Mon 06:11:34 PM 40.5500 -74.8833 102° East 279 321 4,000  Level New York TRACON
Mon 06:12:00 PM 40.5406 -75.1109 82° East  Level FlightAware Approximate
Mon 06:12:34 PM 40.5333 -74.7833 102° East 286 329 4,100  Level New York TRACON
Mon 06:13:00 PM 40.5499 -75.0174 82° East  Level FlightAware Approximate
Mon 06:13:40 PM 40.5167 -74.6833 102° East 285 328 4,000  Level New York TRACON
Mon 06:14:00 PM 40.5521 -74.9231 84° East  Level FlightAware Approximate
Mon 06:14:34 PM 40.4667 -74.6000 128° Southeast 282 325 4,000  Level New York TRACON
Mon 06:15:40 PM 40.4000 -74.5333 143° Southeast 292 336 4,000  Level New York TRACON
Mon 06:16:40 PM 40.3500 -74.4667 135° Southeast 288 331 4,000  Level New York TRACON
Mon 06:17:40 PM 40.3000 -74.3667 123° Southeast 284 327 4,000  Level New York TRACON
Mon 06:18:40 PM 40.3000 -74.2667 90° East 277 319 4,000 316 Level New York TRACON
Mon 06:19:34 PM 40.3167 -74.1833 75° East 279 321 4,600 500 Climbing New York TRACON
Mon 06:20:40 PM 40.3500 -74.0833 66° East 270 311 5,000 200 Climbing New York TRACON
Mon 06:21:34 PM 40.3833 -74.0167 57° Northeast 273 314 5,000  Level New York TRACON
Mon 06:22:40 PM 40.4333 -73.9333 52° Northeast 275 316 5,000  Level New York TRACON
Mon 06:23:40 PM 40.4833 -73.8500 52° Northeast 273 314 5,000  Level New York TRACON
Mon 06:24:34 PM 40.5167 -73.7667 62° Northeast 274 315 5,000 -300 Level New York TRACON
Mon 06:25:40 PM 40.5333 -73.6500 79° East 275 316 4,400 -500 Descending New York TRACON
Mon 06:26:34 PM 40.5333 -73.5667 90° East 280 322 4,000 -200 Descending New York TRACON
Mon 06:27:40 PM 40.5333 -73.4500 90° East 280 322 4,000  Level New York TRACON
Mon 06:29:40 PM 40.5833 -73.2500 72° East 274 315 4,000  Level New York TRACON
Mon 06:30:34 PM 40.6000 -73.1833 72° East 271 312 4,000  Level New York TRACON
Mon 06:31:34 PM 40.6333 -73.0667 69° East 274 315 4,000  Level New York TRACON
Mon 06:32:40 PM 40.6500 -72.9667 78° East 273 314 4,000 -476 Level New York TRACON
Mon 06:33:40 PM 40.6833 -72.8833 62° Northeast 268 308 3,000 -500 Descending New York TRACON
Mon 06:34:40 PM 40.7167 -72.8000 62° Northeast 270 311 3,000 -105 Level New York TRACON
Mon 06:35:34 PM 40.7500 -72.7167 62° Northeast 246 283 2,800 -500 Descending New York TRACON
Mon 06:36:40 PM 40.7833 -72.6333 62° Northeast 219 252 2,000 -905 Descending New York TRACON
Mon 06:37:40 PM 40.8167 -72.6000 37° Northeast 169 194 900 -1,100 Descending New York TRACON

Login

Don't have an account? Register now (free) for customized features, flight alerts, and more!